createdAt,value
2022-09-26T00:02:26.277Z,67.11
2022-09-26T00:05:53.840Z,67.15
2022-09-26T00:09:22.117Z,67.23
2022-09-26T00:12:51.494Z,67.13
2022-09-26T00:16:19.855Z,67.11
2022-09-26T00:19:46.742Z,67.12
2022-09-26T00:23:14.962Z,67.09
2022-09-26T00:26:42.436Z,67.29
2022-09-26T00:30:16.687Z,67.30
2022-09-26T00:33:44.944Z,67.41
2022-09-26T00:37:11.913Z,67.41
2022-09-26T00:40:45.953Z,67.35
2022-09-26T00:44:46.366Z,67.47
2022-09-26T00:48:14.858Z,67.28
2022-09-26T00:51:48.123Z,67.37
2022-09-26T00:55:19.417Z,67.33
2022-09-26T00:58:49.687Z,67.32
2022-09-26T01:02:21.321Z,67.00
2022-09-26T01:05:50.397Z,67.23
2022-09-26T01:09:22.451Z,67.34
2022-09-26T01:12:49.881Z,67.28
2022-09-26T01:16:17.103Z,67.19
2022-09-26T01:19:51.365Z,67.18
2022-09-26T01:23:58.631Z,67.21
2022-09-26T01:27:54.762Z,67.32
2022-09-26T01:31:31.166Z,67.42
2022-09-26T01:35:09.649Z,67.52
2022-09-26T01:38:45.758Z,67.60
2022-09-26T01:42:26.432Z,67.62
2022-09-26T01:46:01.208Z,67.75
2022-09-26T01:49:35.308Z,67.67
2022-09-26T01:53:08.196Z,67.67
2022-09-26T01:56:42.595Z,67.59
2022-09-26T02:00:14.091Z,67.58
2022-09-26T02:03:48.120Z,67.60
2022-09-26T02:07:19.527Z,67.48
2022-09-26T02:10:51.474Z,67.63
2022-09-26T02:14:23.163Z,67.41
2022-09-26T02:17:56.468Z,67.46
2022-09-26T02:21:26.891Z,67.38
2022-09-26T02:24:54.817Z,67.44
2022-09-26T02:28:22.477Z,67.44
2022-09-26T02:31:58.714Z,67.58
2022-09-26T02:35:44.430Z,67.67
2022-09-26T02:39:15.318Z,67.54
2022-09-26T02:42:58.638Z,67.62
2022-09-26T02:46:55.202Z,67.65
2022-09-26T02:50:37.759Z,67.56
2022-09-26T02:54:17.137Z,67.61
2022-09-26T02:57:56.716Z,67.47
2022-09-26T03:01:29.439Z,67.44
2022-09-26T03:05:02.899Z,67.31
2022-09-26T03:08:31.115Z,67.29
2022-09-26T03:12:00.171Z,67.28
2022-09-26T03:15:29.998Z,67.22
2022-09-26T03:19:00.113Z,67.09
2022-09-26T03:22:28.552Z,67.07
2022-09-26T03:26:04.210Z,67.17
2022-09-26T03:29:33.205Z,67.07
2022-09-26T03:33:00.260Z,67.18
2022-09-26T03:36:27.578Z,67.12
2022-09-26T03:39:54.529Z,67.26
2022-09-26T03:43:44.070Z,67.38
2022-09-26T03:47:12.818Z,67.41
2022-09-26T03:50:41.257Z,67.35
2022-09-26T03:54:08.087Z,67.53
2022-09-26T03:57:34.941Z,67.44
2022-09-26T04:01:14.651Z,67.42
2022-09-26T04:04:41.486Z,67.35
2022-09-26T04:08:10.396Z,67.46
2022-09-26T04:11:38.105Z,67.52
2022-09-26T04:15:05.597Z,67.43
2022-09-26T04:18:35.854Z,67.45
2022-09-26T04:22:02.906Z,67.39
2022-09-26T04:25:33.240Z,67.38
2022-09-26T04:29:01.642Z,67.46
2022-09-26T04:32:48.497Z,67.39
2022-09-26T04:36:17.391Z,67.57
2022-09-26T04:39:45.684Z,67.54
2022-09-26T04:43:13.635Z,67.57
2022-09-26T04:46:40.677Z,67.69
2022-09-26T04:50:12.582Z,67.69
2022-09-26T04:53:40.561Z,67.64
2022-09-26T04:57:22.243Z,67.68
2022-09-26T05:00:50.363Z,67.64
2022-09-26T05:04:27.879Z,67.56
2022-09-26T05:07:55.772Z,67.61
2022-09-26T05:11:23.036Z,67.68
2022-09-26T05:14:52.223Z,67.71
2022-09-26T05:18:23.578Z,67.68
2022-09-26T05:21:50.340Z,67.76
2022-09-26T05:25:35.272Z,67.88
2022-09-26T05:29:08.589Z,67.93
2022-09-26T05:32:46.369Z,68.09
2022-09-26T05:36:14.033Z,68.18
2022-09-26T05:39:58.334Z,68.09
2022-09-26T05:43:27.702Z,68.35
2022-09-26T05:46:57.610Z,68.42
2022-09-26T05:50:27.545Z,68.40
2022-09-26T05:53:57.718Z,68.52
2022-09-26T05:57:26.007Z,68.43
2022-09-26T06:01:02.101Z,68.29
2022-09-26T06:04:30.691Z,68.34
2022-09-26T06:08:17.674Z,68.09
2022-09-26T06:11:49.585Z,68.22
2022-09-26T06:15:17.626Z,68.07
2022-09-26T06:18:47.310Z,68.11
2022-09-26T06:22:17.780Z,68.16
2022-09-26T06:25:45.436Z,68.13
2022-09-26T06:29:15.400Z,68.26
2022-09-26T06:32:47.588Z,68.29
2022-09-26T06:36:22.164Z,68.41
2022-09-26T06:39:57.057Z,68.62
2022-09-26T06:43:29.068Z,68.55
2022-09-26T06:47:23.711Z,68.71
2022-09-26T06:51:06.812Z,68.95
2022-09-26T06:54:39.495Z,68.97
2022-09-26T06:58:11.200Z,68.71
2022-09-26T07:01:55.615Z,68.79
2022-09-26T07:06:14.124Z,68.60
2022-09-26T07:09:43.056Z,68.59
2022-09-26T07:13:17.352Z,68.55
2022-09-26T07:16:44.811Z,68.41
2022-09-26T07:20:46.990Z,68.44
2022-09-26T07:24:32.535Z,68.41
2022-09-26T07:28:00.852Z,68.41
2022-09-26T07:31:37.253Z,68.40
2022-09-26T07:35:10.001Z,68.36
2022-09-26T07:38:37.151Z,68.35
2022-09-26T07:42:04.885Z,68.26
2022-09-26T07:45:49.351Z,68.46
2022-09-26T07:49:33.782Z,68.49
2022-09-26T07:53:00.560Z,68.75
2022-09-26T07:56:27.432Z,68.51
2022-09-26T08:00:22.042Z,68.50
2022-09-26T08:03:58.482Z,68.15
2022-09-26T08:07:30.517Z,68.35
2022-09-26T08:11:04.606Z,68.32
2022-09-26T08:14:50.441Z,68.32
2022-09-26T08:18:22.183Z,68.08
2022-09-26T08:21:49.460Z,67.92
2022-09-26T08:25:18.424Z,68.00
2022-09-26T08:29:03.952Z,67.78
2022-09-26T08:32:31.958Z,67.59
2022-09-26T08:36:03.816Z,67.52
2022-09-26T08:39:48.328Z,67.53
2022-09-26T08:44:15.054Z,67.71
2022-09-26T08:48:33.287Z,67.63
2022-09-26T08:52:31.420Z,67.71
2022-09-26T08:56:02.661Z,67.65
2022-09-26T08:59:35.049Z,67.59
2022-09-26T09:03:16.105Z,67.51
2022-09-26T09:06:43.545Z,67.56
2022-09-26T09:10:18.813Z,67.26
2022-09-26T09:14:12.310Z,67.15
2022-09-26T09:18:29.470Z,67.15
2022-09-26T09:22:41.927Z,67.19
2022-09-26T09:30:21.282Z,67.05
2022-09-26T09:34:10.551Z,66.88
2022-09-26T09:38:07.273Z,66.81
2022-09-26T09:41:59.815Z,66.77
2022-09-26T09:45:37.907Z,66.86
2022-09-26T09:49:21.093Z,66.78
2022-09-26T09:52:57.168Z,66.64
2022-09-26T09:56:39.389Z,66.68
2022-09-26T10:00:15.993Z,66.50
2022-09-26T10:03:56.511Z,66.39
2022-09-26T10:07:23.484Z,66.40
2022-09-26T10:11:23.664Z,66.24
2022-09-26T10:15:00.037Z,66.10
2022-09-26T10:19:03.710Z,65.90
2022-09-26T10:22:37.773Z,65.56
2022-09-26T10:26:08.408Z,65.15
2022-09-26T10:29:39.617Z,65.09
2022-09-26T10:33:07.339Z,65.22
2022-09-26T10:36:49.953Z,65.13
2022-09-26T10:40:53.456Z,65.03
2022-09-26T10:44:28.545Z,64.96
2022-09-26T10:48:06.410Z,64.85
2022-09-26T10:52:09.000Z,64.55
2022-09-26T10:55:44.248Z,64.52
2022-09-26T10:59:14.610Z,64.32
2022-09-26T11:02:47.193Z,64.06
2022-09-26T11:06:28.308Z,63.85
2022-09-26T11:10:07.814Z,63.95
2022-09-26T11:13:51.031Z,63.73
2022-09-26T11:17:19.622Z,63.66
2022-09-26T11:20:53.911Z,63.54
2022-09-26T11:24:28.066Z,63.58
2022-09-26T11:28:07.640Z,63.24
2022-09-26T11:32:00.370Z,63.34
2022-09-26T11:36:12.236Z,63.19
2022-09-26T11:40:09.603Z,63.08
2022-09-26T11:43:54.552Z,63.19
2022-09-26T11:48:20.280Z,62.61
2022-09-26T11:52:31.764Z,61.93
2022-09-26T11:56:18.325Z,61.12
2022-09-26T12:00:06.512Z,60.94
2022-09-26T12:04:06.723Z,60.65
2022-09-26T12:07:49.611Z,60.63
2022-09-26T12:11:27.893Z,60.80
2022-09-26T12:15:15.172Z,61.07
2022-09-26T12:18:53.268Z,61.04
2022-09-26T12:22:32.188Z,60.91
2022-09-26T12:26:10.038Z,60.87
2022-09-26T12:29:46.991Z,60.72
2022-09-26T12:33:36.356Z,60.40
2022-09-26T12:37:32.488Z,59.81
2022-09-26T12:41:14.631Z,59.53
2022-09-26T12:44:58.018Z,59.10
2022-09-26T12:48:50.537Z,58.89
2022-09-26T12:52:29.156Z,58.53
2022-09-26T12:56:07.845Z,57.92
2022-09-26T13:00:11.244Z,57.78
2022-09-26T13:03:56.342Z,57.51
2022-09-26T13:07:36.979Z,57.58
2022-09-26T13:11:16.234Z,57.65
2022-09-26T13:15:05.300Z,57.70
2022-09-26T13:18:40.601Z,57.07
2022-09-26T13:22:21.333Z,56.98
2022-09-26T13:25:54.779Z,56.60
2022-09-26T13:29:28.444Z,56.39
2022-09-26T13:33:02.400Z,56.16
2022-09-26T13:36:31.465Z,56.02
2022-09-26T13:40:08.448Z,56.15
2022-09-26T13:43:52.178Z,55.82
2022-09-26T13:47:28.541Z,55.69
2022-09-26T13:51:07.437Z,55.53
2022-09-26T13:54:44.311Z,55.45
2022-09-26T13:58:26.819Z,55.42
2022-09-26T14:02:20.429Z,55.48
2022-09-26T14:06:08.417Z,55.01
2022-09-26T14:09:55.993Z,54.50
2022-09-26T14:13:37.217Z,54.28
2022-09-26T14:17:26.426Z,54.04
2022-09-26T14:21:16.226Z,53.91
2022-09-26T14:24:44.400Z,53.85
2022-09-26T14:28:31.987Z,53.81
2022-09-26T14:32:05.560Z,53.91
2022-09-26T14:35:35.554Z,53.90
2022-09-26T14:39:03.141Z,53.94
2022-09-26T14:42:34.486Z,53.90
2022-09-26T14:46:07.193Z,53.89
2022-09-26T14:49:32.762Z,53.76
2022-09-26T14:53:03.414Z,53.83
2022-09-26T14:56:46.772Z,53.88
2022-09-26T15:00:42.856Z,53.93
2022-09-26T15:04:18.444Z,54.20
2022-09-26T15:07:50.667Z,54.32
2022-09-26T15:11:28.272Z,54.40
2022-09-26T15:15:04.962Z,54.55
2022-09-26T15:18:43.147Z,54.47
2022-09-26T15:22:15.780Z,54.51
2022-09-26T15:25:42.704Z,54.63
2022-09-26T15:29:13.534Z,54.75
2022-09-26T15:32:41.995Z,54.95
2022-09-26T15:36:16.816Z,55.25
2022-09-26T15:39:45.689Z,55.30
2022-09-26T15:43:20.713Z,55.49
2022-09-26T15:46:49.730Z,55.40
2022-09-26T15:50:23.302Z,55.77
2022-09-26T15:53:49.832Z,55.80
2022-09-26T15:57:17.250Z,56.02
2022-09-26T16:00:54.774Z,56.14
2022-09-26T16:04:27.404Z,56.37
2022-09-26T16:07:56.686Z,56.50
2022-09-26T16:11:24.107Z,56.60
2022-09-26T16:14:55.027Z,56.90
2022-09-26T16:18:28.638Z,57.14
2022-09-26T16:21:59.890Z,57.15
2022-09-26T16:25:35.852Z,57.26
2022-09-26T16:29:06.797Z,57.53
2022-09-26T16:32:35.457Z,57.73
2022-09-26T16:36:15.649Z,57.79
2022-09-26T16:39:44.246Z,57.99
2022-09-26T16:43:22.012Z,58.13
2022-09-26T16:46:54.115Z,58.25
2022-09-26T16:50:30.138Z,58.30
2022-09-26T16:54:01.082Z,58.28
2022-09-26T16:57:29.678Z,58.35
2022-09-26T17:01:14.079Z,58.40
2022-09-26T17:04:41.386Z,58.56
2022-09-26T17:08:11.015Z,58.77
2022-09-26T17:11:39.036Z,58.88
2022-09-26T17:15:20.924Z,59.00
2022-09-26T17:18:47.962Z,59.13
2022-09-26T17:22:17.697Z,59.39
2022-09-26T17:25:54.137Z,59.42
2022-09-26T17:29:33.644Z,59.50
2022-09-26T17:33:01.034Z,59.63
2022-09-26T17:36:31.015Z,59.78
2022-09-26T17:40:07.272Z,59.90
2022-09-26T17:43:37.602Z,60.18
2022-09-26T17:47:07.523Z,60.24
2022-09-26T17:50:37.850Z,60.28
2022-09-26T17:54:07.512Z,60.39
2022-09-26T17:57:40.918Z,60.60
2022-09-26T18:01:14.200Z,60.80
2022-09-26T18:04:42.859Z,60.96
2022-09-26T18:08:18.038Z,60.90
2022-09-26T18:11:48.957Z,60.97
2022-09-26T18:15:21.620Z,61.10
2022-09-26T18:18:57.176Z,61.31
2022-09-26T18:22:32.833Z,61.31
2022-09-26T18:26:13.887Z,61.31
2022-09-26T18:29:48.799Z,61.40
2022-09-26T18:33:19.833Z,61.51
2022-09-26T18:36:49.332Z,61.57
2022-09-26T18:40:19.632Z,61.51
2022-09-26T18:43:51.369Z,61.61
2022-09-26T18:47:23.291Z,61.66
2022-09-26T18:50:51.530Z,61.71
2022-09-26T18:54:31.026Z,61.94
2022-09-26T18:58:15.993Z,61.83
2022-09-26T19:01:45.581Z,62.09
2022-09-26T19:05:18.592Z,62.23
2022-09-26T19:08:48.096Z,62.29
2022-09-26T19:12:17.037Z,62.30
2022-09-26T19:15:44.503Z,62.19
2022-09-26T19:19:12.599Z,62.51
2022-09-26T19:22:39.806Z,62.48
2022-09-26T19:26:09.544Z,62.71
2022-09-26T19:29:42.058Z,62.56
2022-09-26T19:33:12.955Z,62.66
2022-09-26T19:36:40.642Z,62.73
2022-09-26T19:40:16.051Z,62.70
2022-09-26T19:43:43.014Z,62.75
2022-09-26T19:47:12.438Z,62.96
2022-09-26T19:50:41.332Z,63.08
2022-09-26T19:54:11.704Z,63.00
2022-09-26T19:57:38.813Z,63.26
2022-09-26T20:01:15.745Z,63.22
2022-09-26T20:04:43.216Z,63.06
2022-09-26T20:08:14.578Z,63.10
2022-09-26T20:11:41.575Z,63.20
2022-09-26T20:15:09.910Z,63.10
2022-09-26T20:18:39.110Z,63.07
2022-09-26T20:22:08.102Z,63.32
2022-09-26T20:25:38.249Z,63.17
2022-09-26T20:29:05.673Z,63.02
2022-09-26T20:32:32.857Z,63.36
2022-09-26T20:36:04.103Z,63.39
2022-09-26T20:39:30.926Z,63.34
2022-09-26T20:43:04.007Z,63.44
2022-09-26T20:46:33.881Z,63.29
2022-09-26T20:50:03.796Z,63.63
2022-09-26T20:53:30.515Z,63.50
2022-09-26T20:56:58.608Z,63.44
2022-09-26T21:00:25.377Z,63.61
2022-09-26T21:03:55.442Z,63.78
2022-09-26T21:07:22.682Z,63.85
2022-09-26T21:10:49.980Z,63.73
2022-09-26T21:14:16.993Z,63.54
2022-09-26T21:17:46.729Z,63.53
2022-09-26T21:21:22.568Z,63.55
2022-09-26T21:25:23.770Z,63.75
2022-09-26T21:28:51.884Z,63.80
2022-09-26T21:32:25.036Z,63.76
2022-09-26T21:35:53.038Z,63.91
2022-09-26T21:39:21.545Z,63.89
2022-09-26T21:42:52.032Z,63.78
2022-09-26T21:46:19.330Z,63.93
2022-09-26T21:49:46.818Z,63.91
2022-09-26T21:53:19.616Z,64.06
2022-09-26T21:56:50.351Z,64.17
2022-09-26T22:00:20.171Z,64.14
2022-09-26T22:03:46.969Z,64.25
2022-09-26T22:07:14.292Z,64.26
2022-09-26T22:10:41.327Z,64.19
2022-09-26T22:14:08.632Z,64.36
2022-09-26T22:17:35.548Z,64.49
2022-09-26T22:21:05.103Z,64.43
2022-09-26T22:24:33.138Z,64.31
2022-09-26T22:28:00.300Z,64.34
2022-09-26T22:31:27.530Z,64.35
2022-09-26T22:34:54.252Z,64.41
2022-09-26T22:38:21.195Z,64.53
2022-09-26T22:41:47.954Z,64.46
2022-09-26T22:45:18.482Z,64.52
2022-09-26T22:48:47.444Z,64.74
2022-09-26T22:52:14.760Z,64.78
2022-09-26T22:55:41.534Z,64.71
2022-09-26T22:59:08.490Z,64.86
2022-09-26T23:02:35.332Z,64.77
2022-09-26T23:06:02.446Z,65.08
2022-09-26T23:09:29.757Z,64.91
2022-09-26T23:12:57.085Z,64.88
2022-09-26T23:16:26.161Z,64.84
2022-09-26T23:19:53.233Z,64.92
2022-09-26T23:23:20.023Z,64.85
2022-09-26T23:26:46.613Z,64.88
2022-09-26T23:30:16.090Z,64.78
2022-09-26T23:33:42.527Z,64.88
2022-09-26T23:37:09.218Z,65.06
2022-09-26T23:40:38.004Z,65.07
2022-09-26T23:44:05.612Z,65.11
2022-09-26T23:47:32.929Z,65.11
2022-09-26T23:50:59.851Z,65.13
2022-09-26T23:54:26.955Z,65.37
2022-09-26T23:57:53.328Z,65.39
